GLD1620 SEGU-SGAS
Flight info
| Callsign | GLD1620 |
|---|---|
| Flight time | 4h 20m |
| Altitude | 37000 |
| Route | EVRE2A EVRED UL780 TRU UV1 JCL UL550 ASOXI UM548 ISAGU ISAGU |
| Aircraft | A20N/M-SDE2E3FGHIRWXY/LB1 |
Departure
| Time | 2026-04-27 13:14 |
|---|---|
| Airport | José Joaquín de Olmedo International Airport (SEGU) |
Arrival
| Time | 2026-04-27 17:35 |
|---|---|
| Airport | Silvio Pettirossi International Airport (SGAS) |
| Time | Latitude | Longitude | Altitude | Speed | Heading |
|---|---|---|---|---|---|
| 2026-04-27 13:01 | -2.15101 | -79.88460 | 28 ft | 0 kts | 300° |
| 2026-04-27 13:07 | -2.15112 | -79.88439 | 21 ft | 4 kts | 288° |
| 2026-04-27 13:07 | -2.15117 | -79.88412 | 28 ft | 4 kts | 264° |
| 2026-04-27 13:07 | -2.15109 | -79.88388 | 28 ft | 4 kts | 230° |
| 2026-04-27 13:07 | -2.15096 | -79.88376 | 28 ft | 1 kts | 210° |
| 2026-04-27 13:08 | -2.15094 | -79.88375 | 28 ft | 0 kts | 210° |
| 2026-04-27 13:10 | -2.15126 | -79.88392 | 28 ft | 11 kts | 204° |
| 2026-04-27 13:10 | -2.15191 | -79.88349 | 28 ft | 14 kts | 123° |
| 2026-04-27 13:10 | -2.15245 | -79.88256 | 28 ft | 18 kts | 120° |
| 2026-04-27 13:11 | -2.15331 | -79.88244 | 27 ft | 14 kts | 216° |
| 2026-04-27 13:11 | -2.15424 | -79.88291 | 27 ft | 17 kts | 210° |
| 2026-04-27 13:11 | -2.15537 | -79.88356 | 27 ft | 20 kts | 209° |
| 2026-04-27 13:11 | -2.15664 | -79.88430 | 27 ft | 23 kts | 210° |
| 2026-04-27 13:12 | -2.15807 | -79.88513 | 28 ft | 25 kts | 211° |
| 2026-04-27 13:12 | -2.15965 | -79.88602 | 28 ft | 27 kts | 211° |
| 2026-04-27 13:12 | -2.16133 | -79.88700 | 28 ft | 29 kts | 209° |
| 2026-04-27 13:12 | -2.16318 | -79.88805 | 28 ft | 31 kts | 210° |
| 2026-04-27 13:13 | -2.16508 | -79.88916 | 28 ft | 33 kts | 211° |
| 2026-04-27 13:13 | -2.16669 | -79.89001 | 28 ft | 18 kts | 196° |
| 2026-04-27 13:13 | -2.16708 | -79.88987 | 27 ft | 0 kts | 136° |
| 2026-04-27 13:13 | -2.16711 | -79.88984 | 27 ft | 4 kts | 127° |
| 2026-04-27 13:14 | -2.16717 | -79.88937 | 27 ft | 9 kts | 60° |
| 2026-04-27 13:14 | -2.16526 | -79.88825 | 28 ft | 76 kts | 30° |
| 2026-04-27 13:14 | -2.15765 | -79.88389 | 41 ft | 160 kts | 29° |
| 2026-04-27 13:14 | -2.14675 | -79.87765 | 621 ft | 192 kts | 30° |
| 2026-04-27 13:15 | -2.13448 | -79.87044 | 1391 ft | 216 kts | 30° |
| 2026-04-27 13:15 | -2.12066 | -79.86231 | 2263 ft | 243 kts | 30° |
| 2026-04-27 13:15 | -2.10699 | -79.85265 | 2986 ft | 250 kts | 49° |
| 2026-04-27 13:15 | -2.09929 | -79.83707 | 4130 ft | 247 kts | 81° |
| 2026-04-27 13:16 | -2.10037 | -79.82041 | 5293 ft | 248 kts | 109° |
| 2026-04-27 13:16 | -2.10964 | -79.80581 | 6274 ft | 254 kts | 139° |
| 2026-04-27 13:16 | -2.12510 | -79.79751 | 7224 ft | 256 kts | 167° |
| 2026-04-27 13:16 | -2.14271 | -79.79714 | 8164 ft | 260 kts | 193° |
| 2026-04-27 13:17 | -2.15993 | -79.80298 | 9112 ft | 264 kts | 200° |
| 2026-04-27 13:17 | -2.17170 | -79.80723 | 9776 ft | 267 kts | 199° |
| 2026-04-27 13:17 | -2.18931 | -79.81335 | 10658 ft | 270 kts | 199° |
| 2026-04-27 13:17 | -2.20685 | -79.81907 | 11829 ft | 257 kts | 194° |
| 2026-04-27 13:18 | -2.22418 | -79.82247 | 12913 ft | 254 kts | 186° |
| 2026-04-27 13:18 | -2.24191 | -79.82313 | 13727 ft | 258 kts | 176° |
| 2026-04-27 13:18 | -2.26002 | -79.82161 | 14320 ft | 271 kts | 174° |
| 2026-04-27 13:18 | -2.27974 | -79.81994 | 14621 ft | 295 kts | 174° |
| 2026-04-27 13:19 | -2.30103 | -79.81829 | 14878 ft | 320 kts | 175° |
| 2026-04-27 13:19 | -2.32411 | -79.81657 | 15119 ft | 344 kts | 175° |
| 2026-04-27 13:19 | -2.34886 | -79.81474 | 15380 ft | 366 kts | 175° |
| 2026-04-27 13:19 | -2.37449 | -79.81285 | 16019 ft | 372 kts | 175° |
| 2026-04-27 13:20 | -2.40047 | -79.81093 | 16761 ft | 376 kts | 174° |
| 2026-04-27 13:20 | -2.42624 | -79.80902 | 17462 ft | 380 kts | 174° |
| 2026-04-27 13:20 | -2.45274 | -79.80704 | 18141 ft | 385 kts | 174° |
| 2026-04-27 13:20 | -2.47951 | -79.80504 | 18737 ft | 389 kts | 174° |
| 2026-04-27 13:21 | -2.50660 | -79.80300 | 19330 ft | 392 kts | 174° |
| 2026-04-27 13:21 | -2.53395 | -79.80095 | 19915 ft | 396 kts | 174° |
| 2026-04-27 13:21 | -2.56162 | -79.79887 | 20490 ft | 400 kts | 174° |
| 2026-04-27 13:21 | -2.58767 | -79.79693 | 21024 ft | 404 kts | 174° |
| 2026-04-27 13:22 | -2.61568 | -79.79483 | 21589 ft | 408 kts | 174° |
| 2026-04-27 13:22 | -2.64429 | -79.79269 | 22135 ft | 412 kts | 174° |
| 2026-04-27 13:22 | -2.67311 | -79.79054 | 22712 ft | 416 kts | 173° |
| 2026-04-27 13:22 | -2.70196 | -79.78838 | 23254 ft | 420 kts | 173° |
| 2026-04-27 13:23 | -2.73125 | -79.78618 | 23753 ft | 424 kts | 173° |
| 2026-04-27 13:23 | -2.76047 | -79.78399 | 24200 ft | 427 kts | 174° |
| 2026-04-27 13:23 | -2.79009 | -79.78176 | 24658 ft | 430 kts | 174° |
| 2026-04-27 13:23 | -2.81985 | -79.77842 | 25114 ft | 432 kts | 171° |
| 2026-04-27 13:24 | -2.84968 | -79.77454 | 25529 ft | 436 kts | 171° |
| 2026-04-27 13:24 | -2.87993 | -79.77063 | 25965 ft | 439 kts | 171° |
| 2026-04-27 13:24 | -2.91038 | -79.76672 | 26375 ft | 442 kts | 171° |
| 2026-04-27 13:24 | -2.93939 | -79.76300 | 26762 ft | 445 kts | 172° |
| 2026-04-27 13:25 | -2.97070 | -79.75899 | 27179 ft | 448 kts | 172° |
| 2026-04-27 13:25 | -3.00173 | -79.75501 | 27572 ft | 451 kts | 172° |
| 2026-04-27 13:25 | -3.03296 | -79.75101 | 27951 ft | 454 kts | 172° |
| 2026-04-27 13:25 | -3.06487 | -79.74692 | 28330 ft | 457 kts | 172° |
| 2026-04-27 13:26 | -3.09660 | -79.74285 | 28687 ft | 460 kts | 172° |
| 2026-04-27 13:26 | -3.12848 | -79.73877 | 29039 ft | 462 kts | 172° |
| 2026-04-27 13:26 | -3.16063 | -79.73465 | 29381 ft | 465 kts | 172° |
| 2026-04-27 13:26 | -3.19282 | -79.73052 | 29697 ft | 468 kts | 172° |
| 2026-04-27 13:27 | -3.22518 | -79.72638 | 30046 ft | 471 kts | 172° |
| 2026-04-27 13:27 | -3.25626 | -79.72239 | 30309 ft | 474 kts | 172° |
| 2026-04-27 13:27 | -3.29016 | -79.71804 | 30633 ft | 476 kts | 173° |
| 2026-04-27 13:27 | -3.32305 | -79.71382 | 30955 ft | 478 kts | 173° |
| 2026-04-27 13:28 | -3.35610 | -79.70958 | 31302 ft | 479 kts | 173° |
| 2026-04-27 13:28 | -3.38911 | -79.70533 | 31752 ft | 478 kts | 173° |
| 2026-04-27 13:28 | -3.42207 | -79.70110 | 32188 ft | 477 kts | 173° |
| 2026-04-27 13:28 | -3.45449 | -79.69695 | 32617 ft | 476 kts | 173° |
| 2026-04-27 13:29 | -3.48737 | -79.69273 | 33048 ft | 475 kts | 174° |
| 2026-04-27 13:29 | -3.52004 | -79.68855 | 33477 ft | 474 kts | 174° |
| 2026-04-27 13:29 | -3.55282 | -79.68434 | 33918 ft | 473 kts | 174° |
| 2026-04-27 13:29 | -3.58528 | -79.68018 | 34293 ft | 472 kts | 174° |
| 2026-04-27 13:30 | -3.61794 | -79.67600 | 34691 ft | 471 kts | 174° |
| 2026-04-27 13:30 | -3.65028 | -79.67186 | 35065 ft | 469 kts | 174° |
| 2026-04-27 13:30 | -3.68272 | -79.66770 | 35415 ft | 468 kts | 174° |
| 2026-04-27 13:30 | -3.71492 | -79.66357 | 35781 ft | 467 kts | 174° |
| 2026-04-27 13:31 | -3.74715 | -79.65944 | 36139 ft | 466 kts | 174° |
| 2026-04-27 13:31 | -3.77932 | -79.65532 | 36497 ft | 465 kts | 174° |
| 2026-04-27 13:31 | -3.81132 | -79.65122 | 36871 ft | 464 kts | 173° |
| 2026-04-27 13:31 | -3.84340 | -79.64712 | 37000 ft | 462 kts | 173° |
| 2026-04-27 13:32 | -3.87477 | -79.64310 | 37113 ft | 462 kts | 173° |
| 2026-04-27 13:32 | -3.90729 | -79.63894 | 37155 ft | 468 kts | 173° |
| 2026-04-27 13:32 | -3.97275 | -79.63055 | 37168 ft | 480 kts | 173° |
| 2026-04-27 13:33 | -4.03959 | -79.62199 | 37175 ft | 485 kts | 173° |
| 2026-04-27 13:33 | -4.10647 | -79.61341 | 37169 ft | 484 kts | 173° |
| 2026-04-27 13:34 | -4.17291 | -79.60489 | 37160 ft | 485 kts | 173° |
| 2026-04-27 13:34 | -4.23950 | -79.59636 | 37144 ft | 485 kts | 173° |
| 2026-04-27 13:35 | -4.30608 | -79.58781 | 37135 ft | 485 kts | 173° |
| 2026-04-27 13:35 | -4.37301 | -79.57922 | 37137 ft | 485 kts | 173° |
| 2026-04-27 13:36 | -4.43946 | -79.57069 | 37140 ft | 485 kts | 173° |
| 2026-04-27 13:36 | -4.50643 | -79.56210 | 37150 ft | 485 kts | 173° |
| 2026-04-27 13:37 | -4.57338 | -79.55367 | 37157 ft | 485 kts | 173° |
| 2026-04-27 13:37 | -4.64029 | -79.54537 | 37162 ft | 485 kts | 173° |
| 2026-04-27 13:38 | -4.70748 | -79.53699 | 37167 ft | 486 kts | 173° |
| 2026-04-27 13:38 | -4.77464 | -79.52861 | 37171 ft | 487 kts | 173° |
| 2026-04-27 13:39 | -4.84188 | -79.52022 | 37183 ft | 488 kts | 173° |
| 2026-04-27 13:39 | -4.90978 | -79.51174 | 37184 ft | 488 kts | 173° |
| 2026-04-27 13:40 | -4.97714 | -79.50333 | 37184 ft | 489 kts | 173° |
| 2026-04-27 13:40 | -5.04477 | -79.49489 | 37178 ft | 489 kts | 173° |
| 2026-04-27 13:41 | -5.11280 | -79.48639 | 37180 ft | 489 kts | 173° |
| 2026-04-27 13:41 | -5.17951 | -79.47805 | 37173 ft | 481 kts | 173° |
| 2026-04-27 13:42 | -5.21265 | -79.47391 | 37173 ft | 466 kts | 173° |
| 2026-04-27 13:42 | -5.24446 | -79.46994 | 37175 ft | 460 kts | 173° |
| 2026-04-27 13:42 | -5.30811 | -79.46198 | 37166 ft | 467 kts | 172° |
| 2026-04-27 13:43 | -5.37253 | -79.45393 | 37167 ft | 466 kts | 172° |
| 2026-04-27 13:43 | -5.38335 | -79.45258 | 37162 ft | 466 kts | 172° |
| 2026-04-27 13:44 | -5.38350 | -79.45256 | 37162 ft | 466 kts | 172° |
| 2026-04-27 13:44 | -5.38364 | -79.45254 | 37164 ft | 466 kts | 172° |
| 2026-04-27 13:45 | -5.38849 | -79.45193 | 37160 ft | 464 kts | 172° |
| 2026-04-27 13:46 | -5.42057 | -79.44793 | 37162 ft | 452 kts | 172° |
| 2026-04-27 13:46 | -5.45201 | -79.44400 | 37160 ft | 460 kts | 172° |
| 2026-04-27 13:46 | -5.51662 | -79.43590 | 37154 ft | 475 kts | 172° |
| 2026-04-27 13:47 | -5.58328 | -79.42755 | 37150 ft | 487 kts | 172° |
| 2026-04-27 13:47 | -5.65074 | -79.41911 | 37144 ft | 494 kts | 172° |
| 2026-04-27 13:48 | -5.71948 | -79.41051 | 37142 ft | 498 kts | 172° |
| 2026-04-27 13:48 | -5.78842 | -79.40188 | 37140 ft | 501 kts | 172° |
| 2026-04-27 13:49 | -5.85730 | -79.39325 | 37139 ft | 503 kts | 172° |
| 2026-04-27 13:49 | -5.92723 | -79.38448 | 37133 ft | 503 kts | 172° |
| 2026-04-27 13:50 | -5.96163 | -79.38018 | 37133 ft | 489 kts | 172° |
| 2026-04-27 13:50 | -5.99443 | -79.37608 | 37132 ft | 470 kts | 172° |
| 2026-04-27 13:50 | -6.02591 | -79.37213 | 37138 ft | 455 kts | 172° |
| 2026-04-27 13:50 | -6.05701 | -79.36822 | 37140 ft | 460 kts | 172° |
| 2026-04-27 13:51 | -6.12175 | -79.36009 | 37133 ft | 467 kts | 172° |
| 2026-04-27 13:51 | -6.18560 | -79.35207 | 37132 ft | 466 kts | 172° |
| 2026-04-27 13:52 | -6.25036 | -79.34394 | 37135 ft | 466 kts | 172° |
| 2026-04-27 13:52 | -6.31471 | -79.33586 | 37129 ft | 465 kts | 172° |
| 2026-04-27 13:53 | -6.41196 | -79.32364 | 37113 ft | 465 kts | 172° |
| 2026-04-27 13:54 | -6.47605 | -79.31559 | 37104 ft | 465 kts | 172° |
| 2026-04-27 13:54 | -6.50950 | -79.31140 | 37100 ft | 458 kts | 172° |
| 2026-04-27 13:54 | -6.54097 | -79.30745 | 37097 ft | 441 kts | 172° |
| 2026-04-27 13:55 | -6.57142 | -79.30364 | 37097 ft | 434 kts | 172° |
| 2026-04-27 13:55 | -6.63240 | -79.29595 | 37091 ft | 450 kts | 172° |
| 2026-04-27 13:56 | -6.69553 | -79.28800 | 37077 ft | 464 kts | 172° |
| 2026-04-27 13:56 | -6.75983 | -79.27992 | 37078 ft | 464 kts | 172° |
| 2026-04-27 13:57 | -6.82345 | -79.27193 | 37076 ft | 464 kts | 172° |
| 2026-04-27 13:57 | -6.88788 | -79.26382 | 37073 ft | 464 kts | 172° |
| 2026-04-27 13:58 | -6.95163 | -79.25581 | 37075 ft | 464 kts | 172° |
| 2026-04-27 13:58 | -7.01612 | -79.24769 | 37068 ft | 464 kts | 172° |
| 2026-04-27 13:59 | -7.07990 | -79.23966 | 37067 ft | 464 kts | 172° |
| 2026-04-27 13:59 | -7.14405 | -79.23158 | 37061 ft | 464 kts | 172° |
| 2026-04-27 14:00 | -7.20810 | -79.22351 | 37064 ft | 465 kts | 172° |
| 2026-04-27 14:00 | -7.27239 | -79.21540 | 37057 ft | 464 kts | 172° |
| 2026-04-27 14:01 | -7.33730 | -79.20722 | 37048 ft | 465 kts | 172° |
| 2026-04-27 14:01 | -7.40113 | -79.19918 | 37045 ft | 464 kts | 172° |
| 2026-04-27 14:02 | -7.46528 | -79.19109 | 37111 ft | 465 kts | 172° |
| 2026-04-27 14:02 | -7.52969 | -79.18296 | 37106 ft | 465 kts | 172° |
| 2026-04-27 14:03 | -7.59406 | -79.17484 | 37101 ft | 464 kts | 172° |
| 2026-04-27 14:03 | -7.65814 | -79.16675 | 37093 ft | 464 kts | 172° |
| 2026-04-27 14:04 | -7.72236 | -79.15864 | 37085 ft | 464 kts | 172° |
| 2026-04-27 14:04 | -7.78598 | -79.15060 | 37066 ft | 464 kts | 172° |
| 2026-04-27 14:05 | -7.85035 | -79.14247 | 37055 ft | 464 kts | 172° |
| 2026-04-27 14:05 | -7.91401 | -79.13442 | 37047 ft | 464 kts | 172° |
| 2026-04-27 14:06 | -7.97843 | -79.12628 | 37042 ft | 463 kts | 172° |
| 2026-04-27 14:06 | -8.04224 | -79.11739 | 37039 ft | 463 kts | 166° |
| 2026-04-27 14:07 | -8.09593 | -79.09625 | 37040 ft | 461 kts | 148° |
| 2026-04-27 14:07 | -8.14574 | -79.05533 | 37040 ft | 460 kts | 134° |
| 2026-04-27 14:08 | -8.19141 | -79.01026 | 37043 ft | 459 kts | 135° |
| 2026-04-27 14:08 | -8.23694 | -78.96555 | 37051 ft | 459 kts | 135° |
| 2026-04-27 14:09 | -8.28275 | -78.92053 | 37065 ft | 459 kts | 135° |
| 2026-04-27 14:09 | -8.32831 | -78.87572 | 37080 ft | 458 kts | 135° |
| 2026-04-27 14:10 | -8.37415 | -78.83062 | 37084 ft | 459 kts | 135° |
| 2026-04-27 14:10 | -8.41980 | -78.78570 | 37092 ft | 458 kts | 135° |
| 2026-04-27 14:11 | -8.46535 | -78.74085 | 37097 ft | 458 kts | 135° |
| 2026-04-27 14:11 | -8.51113 | -78.69577 | 37100 ft | 458 kts | 135° |
| 2026-04-27 14:12 | -8.55673 | -78.65087 | 37106 ft | 458 kts | 135° |
| 2026-04-27 14:12 | -8.60228 | -78.60598 | 37112 ft | 458 kts | 135° |
| 2026-04-27 14:13 | -8.64800 | -78.56091 | 37117 ft | 458 kts | 135° |
| 2026-04-27 14:13 | -8.69361 | -78.51594 | 37126 ft | 458 kts | 135° |
| 2026-04-27 14:14 | -8.73843 | -78.47170 | 37133 ft | 458 kts | 135° |
| 2026-04-27 14:14 | -8.78403 | -78.42670 | 37139 ft | 458 kts | 135° |
| 2026-04-27 14:15 | -8.82957 | -78.38175 | 37141 ft | 458 kts | 135° |
| 2026-04-27 14:15 | -8.87523 | -78.33666 | 37149 ft | 458 kts | 135° |
| 2026-04-27 14:16 | -8.92113 | -78.29131 | 37159 ft | 458 kts | 135° |
| 2026-04-27 14:16 | -8.96664 | -78.24634 | 37171 ft | 458 kts | 135° |
| 2026-04-27 14:17 | -9.01206 | -78.20143 | 37197 ft | 459 kts | 135° |
| 2026-04-27 14:17 | -9.05766 | -78.15631 | 37220 ft | 459 kts | 135° |
| 2026-04-27 14:18 | -9.10362 | -78.11082 | 37234 ft | 460 kts | 135° |
| 2026-04-27 14:18 | -9.14911 | -78.06578 | 37251 ft | 460 kts | 135° |
| 2026-04-27 14:19 | -9.19486 | -78.02048 | 37262 ft | 461 kts | 135° |
| 2026-04-27 14:19 | -9.24074 | -77.97501 | 37274 ft | 461 kts | 135° |
| 2026-04-27 14:20 | -9.28668 | -77.92950 | 37313 ft | 462 kts | 135° |
| 2026-04-27 14:20 | -9.33295 | -77.88361 | 37362 ft | 463 kts | 135° |
| 2026-04-27 14:21 | -9.37899 | -77.83794 | 37400 ft | 462 kts | 135° |
| 2026-04-27 14:21 | -9.42459 | -77.79269 | 37425 ft | 462 kts | 135° |
| 2026-04-27 14:22 | -9.47048 | -77.74714 | 37437 ft | 462 kts | 135° |
| 2026-04-27 14:22 | -9.51626 | -77.70166 | 37438 ft | 462 kts | 135° |
| 2026-04-27 14:23 | -9.56217 | -77.65606 | 37432 ft | 462 kts | 135° |
| 2026-04-27 14:23 | -9.60802 | -77.61049 | 37423 ft | 462 kts | 135° |
| 2026-04-27 14:24 | -9.65393 | -77.56484 | 37408 ft | 462 kts | 135° |
| 2026-04-27 14:24 | -9.69983 | -77.51918 | 37390 ft | 462 kts | 135° |
| 2026-04-27 14:25 | -9.74573 | -77.47350 | 37385 ft | 463 kts | 135° |
| 2026-04-27 14:25 | -9.79165 | -77.42779 | 37383 ft | 463 kts | 135° |
| 2026-04-27 14:26 | -9.83775 | -77.38189 | 37377 ft | 464 kts | 135° |
| 2026-04-27 14:26 | -9.88373 | -77.33608 | 37374 ft | 464 kts | 135° |
| 2026-04-27 14:27 | -9.92944 | -77.29052 | 37370 ft | 464 kts | 135° |
| 2026-04-27 14:27 | -9.97545 | -77.24464 | 37366 ft | 464 kts | 135° |
| 2026-04-27 14:28 | -10.02172 | -77.19847 | 37361 ft | 464 kts | 135° |
| 2026-04-27 14:28 | -10.06754 | -77.15273 | 37355 ft | 464 kts | 135° |
| 2026-04-27 14:29 | -10.11359 | -77.10677 | 37353 ft | 464 kts | 135° |
| 2026-04-27 14:29 | -10.15971 | -77.06070 | 37347 ft | 465 kts | 135° |
| 2026-04-27 14:30 | -10.20577 | -77.01467 | 37345 ft | 465 kts | 135° |
| 2026-04-27 14:30 | -10.25188 | -76.96858 | 37329 ft | 465 kts | 135° |
| 2026-04-27 14:31 | -10.29787 | -76.92259 | 37332 ft | 465 kts | 135° |
| 2026-04-27 14:31 | -10.34404 | -76.87639 | 37336 ft | 465 kts | 135° |
| 2026-04-27 14:32 | -10.38227 | -76.83812 | 37338 ft | 465 kts | 135° |
| 2026-04-27 14:32 | -10.43617 | -76.78415 | 37340 ft | 465 kts | 135° |
| 2026-04-27 14:33 | -10.48158 | -76.73865 | 37341 ft | 465 kts | 135° |
| 2026-04-27 14:33 | -10.51989 | -76.70027 | 37338 ft | 465 kts | 135° |
| 2026-04-27 14:34 | -10.56631 | -76.65372 | 37343 ft | 466 kts | 135° |
| 2026-04-27 14:34 | -10.61247 | -76.60742 | 37340 ft | 466 kts | 135° |
| 2026-04-27 14:35 | -10.65874 | -76.56097 | 37343 ft | 466 kts | 135° |
| 2026-04-27 14:35 | -10.70461 | -76.51492 | 37345 ft | 466 kts | 135° |
| 2026-04-27 14:36 | -10.75059 | -76.46874 | 37355 ft | 465 kts | 135° |
| 2026-04-27 14:36 | -10.79699 | -76.42211 | 37363 ft | 466 kts | 135° |
| 2026-04-27 14:37 | -10.84278 | -76.37606 | 37367 ft | 465 kts | 135° |
| 2026-04-27 14:37 | -10.88888 | -76.32969 | 37373 ft | 466 kts | 135° |
| 2026-04-27 14:38 | -10.93498 | -76.28331 | 37374 ft | 466 kts | 135° |
| 2026-04-27 14:38 | -10.98106 | -76.23691 | 37381 ft | 466 kts | 135° |
| 2026-04-27 14:39 | -11.02701 | -76.19062 | 37373 ft | 466 kts | 135° |
| 2026-04-27 14:39 | -11.07310 | -76.14418 | 37377 ft | 466 kts | 135° |
| 2026-04-27 14:40 | -11.11917 | -76.09772 | 37381 ft | 465 kts | 135° |
| 2026-04-27 14:40 | -11.16517 | -76.05134 | 37381 ft | 465 kts | 135° |
| 2026-04-27 14:41 | -11.21136 | -76.00473 | 37382 ft | 465 kts | 135° |
| 2026-04-27 14:41 | -11.25735 | -75.95829 | 37380 ft | 464 kts | 135° |
| 2026-04-27 14:42 | -11.30324 | -75.91194 | 37381 ft | 465 kts | 135° |
| 2026-04-27 14:42 | -11.34910 | -75.86559 | 37384 ft | 464 kts | 135° |
| 2026-04-27 14:43 | -11.39492 | -75.81926 | 37382 ft | 464 kts | 135° |
| 2026-04-27 14:43 | -11.44039 | -75.77326 | 37383 ft | 463 kts | 135° |
| 2026-04-27 14:44 | -11.48555 | -75.72756 | 37386 ft | 463 kts | 135° |
| 2026-04-27 14:44 | -11.53157 | -75.68096 | 37424 ft | 463 kts | 135° |
| 2026-04-27 14:45 | -11.57734 | -75.63459 | 37491 ft | 464 kts | 135° |
| 2026-04-27 14:45 | -11.62309 | -75.58823 | 37558 ft | 463 kts | 135° |
| 2026-04-27 14:46 | -11.66942 | -75.54124 | 37622 ft | 464 kts | 135° |
| 2026-04-27 14:46 | -11.71490 | -75.49510 | 37660 ft | 464 kts | 135° |
| 2026-04-27 14:47 | -11.76100 | -75.44832 | 37661 ft | 464 kts | 135° |
| 2026-04-27 14:47 | -11.80667 | -75.40194 | 37661 ft | 464 kts | 135° |
| 2026-04-27 14:48 | -11.85249 | -75.35538 | 37619 ft | 464 kts | 135° |
| 2026-04-27 14:48 | -11.92130 | -75.28542 | 37536 ft | 465 kts | 135° |
| 2026-04-27 14:49 | -11.96684 | -75.23908 | 37478 ft | 465 kts | 135° |
| 2026-04-27 14:49 | -12.01264 | -75.19246 | 37419 ft | 466 kts | 135° |
| 2026-04-27 14:50 | -12.05847 | -75.14577 | 37415 ft | 465 kts | 135° |
| 2026-04-27 14:50 | -12.10436 | -75.09901 | 37418 ft | 466 kts | 135° |
| 2026-04-27 14:51 | -12.15050 | -75.05198 | 37416 ft | 466 kts | 135° |
| 2026-04-27 14:51 | -12.18870 | -75.01303 | 37414 ft | 466 kts | 135° |
| 2026-04-27 14:52 | -12.24192 | -74.95872 | 37407 ft | 466 kts | 135° |
| 2026-04-27 14:52 | -12.28790 | -74.91179 | 37403 ft | 466 kts | 135° |
| 2026-04-27 14:53 | -12.33412 | -74.86457 | 37403 ft | 467 kts | 135° |
| 2026-04-27 14:53 | -12.37993 | -74.81777 | 37405 ft | 467 kts | 135° |
| 2026-04-27 14:54 | -12.42589 | -74.77075 | 37399 ft | 467 kts | 135° |
| 2026-04-27 14:54 | -12.47159 | -74.72399 | 37405 ft | 468 kts | 135° |
| 2026-04-27 14:55 | -12.51749 | -74.67700 | 37411 ft | 468 kts | 135° |
| 2026-04-27 14:55 | -12.56348 | -74.62990 | 37410 ft | 467 kts | 135° |
| 2026-04-27 14:56 | -12.60949 | -74.58277 | 37409 ft | 468 kts | 135° |
| 2026-04-27 14:56 | -12.65538 | -74.53572 | 37411 ft | 467 kts | 135° |
| 2026-04-27 14:57 | -12.70122 | -74.48868 | 37418 ft | 467 kts | 135° |
| 2026-04-27 14:57 | -12.74689 | -74.44182 | 37413 ft | 467 kts | 135° |
| 2026-04-27 14:58 | -12.79260 | -74.39488 | 37417 ft | 467 kts | 135° |
| 2026-04-27 14:58 | -12.83836 | -74.34786 | 37424 ft | 467 kts | 135° |
| 2026-04-27 14:59 | -12.88420 | -74.30074 | 37440 ft | 467 kts | 135° |
| 2026-04-27 14:59 | -12.93014 | -74.25347 | 37456 ft | 467 kts | 135° |
| 2026-04-27 15:00 | -12.97603 | -74.20625 | 37473 ft | 467 kts | 135° |
| 2026-04-27 15:00 | -13.02156 | -74.15936 | 37484 ft | 467 kts | 135° |
| 2026-04-27 15:01 | -13.06749 | -74.11203 | 37487 ft | 468 kts | 135° |
| 2026-04-27 15:01 | -13.11327 | -74.06484 | 37482 ft | 467 kts | 135° |
| 2026-04-27 15:02 | -13.15907 | -74.01759 | 37471 ft | 467 kts | 135° |
| 2026-04-27 15:02 | -13.20533 | -73.96984 | 37456 ft | 468 kts | 135° |
| 2026-04-27 15:03 | -13.25122 | -73.92246 | 37427 ft | 467 kts | 134° |
| 2026-04-27 15:03 | -13.29694 | -73.87521 | 37401 ft | 468 kts | 135° |
| 2026-04-27 15:04 | -13.34292 | -73.82767 | 37390 ft | 468 kts | 135° |
| 2026-04-27 15:04 | -13.38872 | -73.78028 | 37383 ft | 468 kts | 135° |
| 2026-04-27 15:05 | -13.43493 | -73.73246 | 37374 ft | 468 kts | 135° |
| 2026-04-27 15:05 | -13.48076 | -73.68499 | 37369 ft | 468 kts | 135° |
| 2026-04-27 15:06 | -13.52625 | -73.63785 | 37393 ft | 468 kts | 135° |
| 2026-04-27 15:06 | -13.57209 | -73.59033 | 37460 ft | 468 kts | 135° |
| 2026-04-27 15:07 | -13.61773 | -73.54297 | 37531 ft | 468 kts | 135° |
| 2026-04-27 15:07 | -13.66352 | -73.49545 | 37596 ft | 469 kts | 135° |
| 2026-04-27 15:08 | -13.70940 | -73.44779 | 37658 ft | 468 kts | 135° |
| 2026-04-27 15:08 | -13.75519 | -73.40020 | 37661 ft | 468 kts | 135° |
| 2026-04-27 15:09 | -13.80101 | -73.35255 | 37660 ft | 469 kts | 135° |
| 2026-04-27 15:09 | -13.84677 | -73.30494 | 37597 ft | 468 kts | 135° |
| 2026-04-27 15:10 | -13.89266 | -73.25717 | 37524 ft | 469 kts | 135° |
| 2026-04-27 15:10 | -13.93819 | -73.20973 | 37445 ft | 469 kts | 135° |
| 2026-04-27 15:11 | -13.98403 | -73.16194 | 37367 ft | 468 kts | 135° |
| 2026-04-27 15:11 | -14.02980 | -73.11421 | 37327 ft | 469 kts | 135° |
| 2026-04-27 15:12 | -14.07560 | -73.06641 | 37320 ft | 469 kts | 135° |
| 2026-04-27 15:12 | -14.11360 | -73.02672 | 37318 ft | 468 kts | 135° |
| 2026-04-27 15:13 | -14.15942 | -72.97885 | 37315 ft | 469 kts | 135° |
| 2026-04-27 15:13 | -14.20519 | -72.93100 | 37324 ft | 469 kts | 135° |
| 2026-04-27 15:14 | -14.25108 | -72.88299 | 37314 ft | 469 kts | 135° |
| 2026-04-27 15:14 | -14.29692 | -72.83502 | 37319 ft | 470 kts | 135° |
| 2026-04-27 15:15 | -14.34282 | -72.78694 | 37315 ft | 470 kts | 135° |
| 2026-04-27 15:15 | -14.38853 | -72.73904 | 37314 ft | 469 kts | 135° |
| 2026-04-27 15:16 | -14.43439 | -72.69094 | 37309 ft | 469 kts | 135° |
| 2026-04-27 15:16 | -14.48008 | -72.64300 | 37311 ft | 468 kts | 135° |
| 2026-04-27 15:17 | -14.52577 | -72.59501 | 37312 ft | 469 kts | 135° |
| 2026-04-27 15:17 | -14.57144 | -72.54702 | 37311 ft | 468 kts | 135° |
| 2026-04-27 15:18 | -14.61706 | -72.49907 | 37322 ft | 468 kts | 135° |
| 2026-04-27 15:18 | -14.66267 | -72.45107 | 37325 ft | 468 kts | 135° |
| 2026-04-27 15:19 | -14.70803 | -72.40333 | 37340 ft | 468 kts | 135° |
| 2026-04-27 15:19 | -14.75341 | -72.35552 | 37344 ft | 469 kts | 135° |
| 2026-04-27 15:20 | -14.79868 | -72.30782 | 37357 ft | 467 kts | 135° |
| 2026-04-27 15:20 | -14.84402 | -72.26000 | 37367 ft | 467 kts | 135° |
| 2026-04-27 15:21 | -14.88965 | -72.21185 | 37368 ft | 467 kts | 135° |
| 2026-04-27 15:21 | -14.93517 | -72.16379 | 37378 ft | 467 kts | 135° |
| 2026-04-27 15:22 | -14.98044 | -72.11595 | 37387 ft | 467 kts | 135° |
| 2026-04-27 15:22 | -15.02762 | -72.06605 | 37392 ft | 467 kts | 135° |
| 2026-04-27 15:23 | -15.07303 | -72.01801 | 37399 ft | 467 kts | 135° |
| 2026-04-27 15:23 | -15.11847 | -71.96990 | 37404 ft | 467 kts | 135° |
| 2026-04-27 15:24 | -15.16390 | -71.92177 | 37410 ft | 468 kts | 135° |
| 2026-04-27 15:24 | -15.20929 | -71.87365 | 37416 ft | 467 kts | 135° |
| 2026-04-27 15:25 | -15.25462 | -71.82556 | 37424 ft | 467 kts | 135° |
| 2026-04-27 15:25 | -15.30004 | -71.77735 | 37423 ft | 467 kts | 135° |
| 2026-04-27 15:26 | -15.34541 | -71.72916 | 37428 ft | 467 kts | 135° |
| 2026-04-27 15:26 | -15.39084 | -71.68087 | 37434 ft | 467 kts | 135° |
| 2026-04-27 15:27 | -15.43616 | -71.63267 | 37439 ft | 468 kts | 135° |
| 2026-04-27 15:27 | -15.48153 | -71.58437 | 37445 ft | 468 kts | 135° |
| 2026-04-27 15:28 | -15.52661 | -71.53636 | 37453 ft | 468 kts | 135° |
| 2026-04-27 15:28 | -15.57200 | -71.48800 | 37450 ft | 467 kts | 135° |
| 2026-04-27 15:29 | -15.61727 | -71.43971 | 37454 ft | 468 kts | 135° |
| 2026-04-27 15:29 | -15.66269 | -71.39123 | 37450 ft | 468 kts | 135° |
| 2026-04-27 15:30 | -15.70780 | -71.34305 | 37451 ft | 468 kts | 135° |
| 2026-04-27 15:30 | -15.75318 | -71.29457 | 37449 ft | 468 kts | 135° |
| 2026-04-27 15:31 | -15.79848 | -71.24612 | 37448 ft | 468 kts | 135° |
| 2026-04-27 15:31 | -15.84386 | -71.19756 | 37451 ft | 468 kts | 135° |
| 2026-04-27 15:32 | -15.88924 | -71.14896 | 37451 ft | 469 kts | 135° |
| 2026-04-27 15:32 | -15.93495 | -71.09998 | 37450 ft | 469 kts | 135° |
| 2026-04-27 15:33 | -15.98039 | -71.05125 | 37447 ft | 469 kts | 135° |
| 2026-04-27 15:33 | -16.02581 | -71.00251 | 37444 ft | 470 kts | 135° |
| 2026-04-27 15:34 | -16.07125 | -70.95372 | 37440 ft | 470 kts | 135° |
| 2026-04-27 15:34 | -16.11647 | -70.90512 | 37430 ft | 470 kts | 135° |
| 2026-04-27 15:35 | -16.16192 | -70.85625 | 37424 ft | 470 kts | 135° |
| 2026-04-27 15:35 | -16.20736 | -70.80735 | 37414 ft | 470 kts | 135° |
| 2026-04-27 15:36 | -16.25346 | -70.75770 | 37407 ft | 470 kts | 135° |
| 2026-04-27 15:36 | -16.29892 | -70.70872 | 37395 ft | 471 kts | 135° |
| 2026-04-27 15:37 | -16.34443 | -70.65963 | 37385 ft | 471 kts | 135° |
| 2026-04-27 15:37 | -16.38984 | -70.61063 | 37377 ft | 470 kts | 135° |
| 2026-04-27 15:38 | -16.43524 | -70.56160 | 37372 ft | 471 kts | 135° |
| 2026-04-27 15:38 | -16.48079 | -70.51237 | 37367 ft | 471 kts | 135° |
| 2026-04-27 15:39 | -16.52618 | -70.46328 | 37366 ft | 471 kts | 135° |
| 2026-04-27 15:39 | -16.57200 | -70.41370 | 37365 ft | 472 kts | 135° |
| 2026-04-27 15:40 | -16.61749 | -70.36443 | 37361 ft | 471 kts | 135° |
| 2026-04-27 15:40 | -16.66273 | -70.31540 | 37352 ft | 472 kts | 135° |
| 2026-04-27 15:41 | -16.70855 | -70.26569 | 37346 ft | 472 kts | 135° |
| 2026-04-27 15:41 | -16.75397 | -70.21639 | 37342 ft | 472 kts | 135° |
| 2026-04-27 15:42 | -16.79949 | -70.16694 | 37325 ft | 473 kts | 135° |
| 2026-04-27 15:42 | -16.84501 | -70.11746 | 37312 ft | 473 kts | 135° |
| 2026-04-27 15:43 | -16.89061 | -70.06786 | 37297 ft | 473 kts | 135° |
| 2026-04-27 15:43 | -16.92853 | -70.02659 | 37287 ft | 473 kts | 135° |
| 2026-04-27 15:44 | -16.97406 | -69.97701 | 37285 ft | 473 kts | 135° |
| 2026-04-27 15:44 | -17.01993 | -69.92703 | 37274 ft | 474 kts | 135° |
| 2026-04-27 15:45 | -17.06555 | -69.87729 | 37245 ft | 474 kts | 135° |
| 2026-04-27 15:45 | -17.11118 | -69.82749 | 37229 ft | 474 kts | 135° |
| 2026-04-27 15:46 | -17.15681 | -69.77765 | 37235 ft | 475 kts | 135° |
| 2026-04-27 15:46 | -17.20252 | -69.72770 | 37218 ft | 475 kts | 135° |
| 2026-04-27 15:47 | -17.24747 | -69.67854 | 37217 ft | 475 kts | 135° |
| 2026-04-27 15:47 | -17.29257 | -69.62650 | 37215 ft | 476 kts | 129° |
| 2026-04-27 15:48 | -17.32987 | -69.56856 | 37215 ft | 478 kts | 122° |
| 2026-04-27 15:49 | -17.38280 | -69.48011 | 37204 ft | 478 kts | 123° |
| 2026-04-27 15:49 | -17.41809 | -69.42119 | 37204 ft | 478 kts | 122° |
| 2026-04-27 15:50 | -17.45339 | -69.36210 | 37197 ft | 478 kts | 122° |
| 2026-04-27 15:50 | -17.48863 | -69.30311 | 37199 ft | 479 kts | 123° |
| 2026-04-27 15:51 | -17.52500 | -69.24395 | 37196 ft | 479 kts | 123° |
| 2026-04-27 15:51 | -17.56111 | -69.18545 | 37200 ft | 479 kts | 123° |
| 2026-04-27 15:52 | -17.59767 | -69.12593 | 37203 ft | 480 kts | 123° |
| 2026-04-27 15:52 | -17.63427 | -69.06622 | 37205 ft | 480 kts | 123° |
| 2026-04-27 15:53 | -17.67031 | -69.00737 | 37200 ft | 480 kts | 123° |
| 2026-04-27 15:53 | -17.70641 | -68.94839 | 37200 ft | 480 kts | 123° |
| 2026-04-27 15:54 | -17.74245 | -68.88944 | 37201 ft | 480 kts | 123° |
| 2026-04-27 15:54 | -17.77844 | -68.83052 | 37200 ft | 481 kts | 123° |
| 2026-04-27 15:55 | -17.81454 | -68.77139 | 37197 ft | 481 kts | 123° |
| 2026-04-27 15:55 | -17.85061 | -68.71223 | 37190 ft | 481 kts | 123° |
| 2026-04-27 15:56 | -17.88640 | -68.65347 | 37188 ft | 481 kts | 123° |
| 2026-04-27 15:56 | -17.92248 | -68.59418 | 37185 ft | 481 kts | 123° |
| 2026-04-27 15:57 | -17.95853 | -68.53490 | 37186 ft | 482 kts | 123° |
| 2026-04-27 15:57 | -17.99457 | -68.47559 | 37178 ft | 482 kts | 123° |
| 2026-04-27 15:58 | -18.03060 | -68.41623 | 37172 ft | 482 kts | 123° |
| 2026-04-27 15:58 | -18.06704 | -68.35725 | 37168 ft | 481 kts | 124° |
| 2026-04-27 15:59 | -18.10450 | -68.29878 | 37165 ft | 482 kts | 124° |
| 2026-04-27 15:59 | -18.14187 | -68.24017 | 37163 ft | 483 kts | 124° |
| 2026-04-27 16:00 | -18.17913 | -68.18145 | 37160 ft | 483 kts | 124° |
| 2026-04-27 16:00 | -18.21682 | -68.12193 | 37156 ft | 482 kts | 124° |
| 2026-04-27 16:01 | -18.25403 | -68.06311 | 37152 ft | 483 kts | 124° |
| 2026-04-27 16:01 | -18.29092 | -68.00476 | 37151 ft | 483 kts | 124° |
| 2026-04-27 16:02 | -18.32804 | -67.94599 | 37155 ft | 483 kts | 124° |
| 2026-04-27 16:02 | -18.36534 | -67.88689 | 37160 ft | 483 kts | 124° |
| 2026-04-27 16:03 | -18.40250 | -67.82794 | 37166 ft | 483 kts | 124° |
| 2026-04-27 16:03 | -18.43963 | -67.76901 | 37173 ft | 483 kts | 124° |
| 2026-04-27 16:04 | -18.47634 | -67.71066 | 37176 ft | 483 kts | 124° |
| 2026-04-27 16:04 | -18.51361 | -67.65138 | 37196 ft | 483 kts | 124° |
| 2026-04-27 16:05 | -18.55096 | -67.59192 | 37200 ft | 483 kts | 124° |
| 2026-04-27 16:05 | -18.58777 | -67.53327 | 37208 ft | 483 kts | 124° |
| 2026-04-27 16:06 | -18.62472 | -67.47433 | 37210 ft | 482 kts | 124° |
| 2026-04-27 16:06 | -18.66158 | -67.41518 | 37217 ft | 483 kts | 124° |
| 2026-04-27 16:07 | -18.69845 | -67.35596 | 37221 ft | 482 kts | 124° |
| 2026-04-27 16:07 | -18.73526 | -67.29680 | 37222 ft | 482 kts | 124° |
| 2026-04-27 16:08 | -18.77205 | -67.23761 | 37224 ft | 482 kts | 124° |
| 2026-04-27 16:08 | -18.80906 | -67.17801 | 37223 ft | 482 kts | 124° |
| 2026-04-27 16:09 | -18.84553 | -67.11924 | 37231 ft | 482 kts | 124° |
| 2026-04-27 16:09 | -18.90030 | -67.03087 | 37234 ft | 482 kts | 124° |
| 2026-04-27 16:10 | -18.96846 | -66.92071 | 37244 ft | 482 kts | 124° |
| 2026-04-27 16:11 | -19.02341 | -66.83176 | 37254 ft | 482 kts | 124° |
| 2026-04-27 16:12 | -19.07826 | -66.74285 | 37263 ft | 482 kts | 124° |
| 2026-04-27 16:13 | -19.13310 | -66.65382 | 37260 ft | 481 kts | 124° |
| 2026-04-27 16:13 | -19.18765 | -66.56514 | 37258 ft | 481 kts | 124° |
| 2026-04-27 16:14 | -19.26054 | -66.44644 | 37245 ft | 481 kts | 124° |
| 2026-04-27 16:15 | -19.33342 | -66.32751 | 37226 ft | 482 kts | 124° |
| 2026-04-27 16:16 | -19.40627 | -66.20844 | 37206 ft | 482 kts | 124° |
| 2026-04-27 16:17 | -19.47982 | -66.08906 | 37180 ft | 482 kts | 124° |
| 2026-04-27 16:18 | -19.55309 | -65.97051 | 37166 ft | 481 kts | 124° |
| 2026-04-27 16:19 | -19.58978 | -65.91114 | 37153 ft | 481 kts | 124° |
| 2026-04-27 16:20 | -19.66277 | -65.79203 | 37154 ft | 482 kts | 123° |
| 2026-04-27 16:21 | -19.71620 | -65.70172 | 37140 ft | 482 kts | 123° |
| 2026-04-27 16:22 | -19.78735 | -65.58183 | 37128 ft | 481 kts | 123° |
| 2026-04-27 16:22 | -19.84141 | -65.49072 | 37113 ft | 482 kts | 123° |
| 2026-04-27 16:23 | -19.89510 | -65.40070 | 37106 ft | 481 kts | 123° |
| 2026-04-27 16:24 | -19.93081 | -65.34076 | 37101 ft | 481 kts | 123° |
| 2026-04-27 16:25 | -20.00237 | -65.22036 | 37092 ft | 481 kts | 123° |
| 2026-04-27 16:26 | -20.07434 | -65.09902 | 37100 ft | 482 kts | 123° |
| 2026-04-27 16:27 | -20.14612 | -64.97777 | 37152 ft | 483 kts | 123° |
| 2026-04-27 16:28 | -20.23775 | -64.82387 | 37150 ft | 491 kts | 123° |
| 2026-04-27 16:29 | -20.32929 | -64.66974 | 37185 ft | 490 kts | 124° |
| 2026-04-27 16:30 | -20.40227 | -64.54704 | 37202 ft | 491 kts | 124° |
| 2026-04-27 16:31 | -20.48791 | -64.40291 | 37196 ft | 491 kts | 124° |
| 2026-04-27 16:32 | -20.54248 | -64.31087 | 37188 ft | 490 kts | 124° |
| 2026-04-27 16:33 | -20.59734 | -64.21853 | 37177 ft | 491 kts | 124° |
| 2026-04-27 16:33 | -20.63395 | -64.15689 | 37177 ft | 491 kts | 124° |
| 2026-04-27 16:34 | -20.67074 | -64.09489 | 37169 ft | 491 kts | 124° |
| 2026-04-27 16:34 | -20.70756 | -64.03350 | 37170 ft | 491 kts | 124° |
| 2026-04-27 16:35 | -20.74450 | -63.97195 | 37157 ft | 491 kts | 124° |
| 2026-04-27 16:36 | -20.79927 | -63.88040 | 37159 ft | 492 kts | 124° |
| 2026-04-27 16:36 | -20.83641 | -63.81820 | 37157 ft | 493 kts | 124° |
| 2026-04-27 16:37 | -20.87329 | -63.75638 | 37157 ft | 493 kts | 124° |
| 2026-04-27 16:37 | -20.91023 | -63.69442 | 37159 ft | 494 kts | 124° |
| 2026-04-27 16:38 | -20.94670 | -63.63315 | 37159 ft | 494 kts | 124° |
| 2026-04-27 16:38 | -20.98359 | -63.57110 | 37157 ft | 495 kts | 124° |
| 2026-04-27 16:39 | -21.02036 | -63.50923 | 37167 ft | 495 kts | 124° |
| 2026-04-27 16:39 | -21.05738 | -63.44683 | 37169 ft | 495 kts | 124° |
| 2026-04-27 16:40 | -21.09428 | -63.38455 | 37168 ft | 495 kts | 124° |
| 2026-04-27 16:40 | -21.13116 | -63.32228 | 37172 ft | 496 kts | 124° |
| 2026-04-27 16:41 | -21.16809 | -63.25984 | 37172 ft | 496 kts | 124° |
| 2026-04-27 16:41 | -21.20484 | -63.19761 | 37165 ft | 496 kts | 124° |
| 2026-04-27 16:42 | -21.24213 | -63.13441 | 37156 ft | 497 kts | 124° |
| 2026-04-27 16:42 | -21.27902 | -63.07183 | 37149 ft | 497 kts | 124° |
| 2026-04-27 16:43 | -21.31602 | -63.00906 | 37139 ft | 497 kts | 124° |
| 2026-04-27 16:43 | -21.35384 | -62.94703 | 37137 ft | 498 kts | 125° |
| 2026-04-27 16:44 | -21.39213 | -62.88455 | 37139 ft | 498 kts | 125° |
| 2026-04-27 16:44 | -21.42975 | -62.82283 | 37133 ft | 498 kts | 125° |
| 2026-04-27 16:45 | -21.46808 | -62.75979 | 37136 ft | 498 kts | 125° |
| 2026-04-27 16:45 | -21.50599 | -62.69736 | 37133 ft | 498 kts | 125° |
| 2026-04-27 16:46 | -21.54385 | -62.63493 | 37130 ft | 499 kts | 124° |
| 2026-04-27 16:46 | -21.58173 | -62.57241 | 37133 ft | 499 kts | 124° |
| 2026-04-27 16:47 | -21.61987 | -62.50938 | 37131 ft | 499 kts | 124° |
| 2026-04-27 16:47 | -21.65767 | -62.44685 | 37129 ft | 500 kts | 124° |
| 2026-04-27 16:48 | -21.69537 | -62.38428 | 37133 ft | 500 kts | 124° |
| 2026-04-27 16:48 | -21.73331 | -62.32128 | 37130 ft | 500 kts | 124° |
| 2026-04-27 16:49 | -21.78977 | -62.22743 | 37131 ft | 501 kts | 124° |
| 2026-04-27 16:49 | -21.82759 | -62.16444 | 37136 ft | 501 kts | 124° |
| 2026-04-27 16:50 | -21.86534 | -62.10150 | 37138 ft | 501 kts | 124° |
| 2026-04-27 16:50 | -21.90320 | -62.03831 | 37137 ft | 502 kts | 124° |
| 2026-04-27 16:51 | -21.94062 | -61.97577 | 37139 ft | 502 kts | 124° |
| 2026-04-27 16:51 | -21.97842 | -61.91254 | 37144 ft | 502 kts | 124° |
| 2026-04-27 16:52 | -22.01617 | -61.84930 | 37138 ft | 502 kts | 124° |
| 2026-04-27 16:52 | -22.05398 | -61.78589 | 37144 ft | 503 kts | 124° |
| 2026-04-27 16:53 | -22.09177 | -61.72245 | 37144 ft | 503 kts | 124° |
| 2026-04-27 16:53 | -22.12954 | -61.65895 | 37142 ft | 503 kts | 124° |
| 2026-04-27 16:54 | -22.16721 | -61.59556 | 37141 ft | 503 kts | 124° |
| 2026-04-27 16:54 | -22.20500 | -61.53188 | 37145 ft | 503 kts | 124° |
| 2026-04-27 16:55 | -22.24283 | -61.46807 | 37145 ft | 504 kts | 124° |
| 2026-04-27 16:55 | -22.28054 | -61.40438 | 37147 ft | 504 kts | 124° |
| 2026-04-27 16:56 | -22.31829 | -61.34053 | 37149 ft | 504 kts | 124° |
| 2026-04-27 16:56 | -22.35602 | -61.27666 | 37151 ft | 505 kts | 124° |
| 2026-04-27 16:57 | -22.39352 | -61.21310 | 37148 ft | 505 kts | 124° |
| 2026-04-27 16:57 | -22.43119 | -61.14917 | 37147 ft | 505 kts | 124° |
| 2026-04-27 16:58 | -22.46899 | -61.08494 | 37154 ft | 505 kts | 124° |
| 2026-04-27 16:58 | -22.50669 | -61.02080 | 37152 ft | 506 kts | 124° |
| 2026-04-27 16:59 | -22.54438 | -60.95659 | 37153 ft | 506 kts | 124° |
| 2026-04-27 16:59 | -22.58211 | -60.89226 | 37151 ft | 506 kts | 124° |
| 2026-04-27 17:00 | -22.63226 | -60.80660 | 37153 ft | 506 kts | 124° |
| 2026-04-27 17:01 | -22.67000 | -60.74206 | 37150 ft | 507 kts | 124° |
| 2026-04-27 17:01 | -22.70769 | -60.67752 | 37151 ft | 507 kts | 124° |
| 2026-04-27 17:02 | -22.74533 | -60.61298 | 37156 ft | 508 kts | 124° |
| 2026-04-27 17:02 | -22.78303 | -60.54828 | 37155 ft | 508 kts | 124° |
| 2026-04-27 17:03 | -22.82096 | -60.48307 | 37155 ft | 508 kts | 124° |
| 2026-04-27 17:03 | -22.85836 | -60.41870 | 37154 ft | 508 kts | 124° |
| 2026-04-27 17:04 | -22.89601 | -60.35383 | 37153 ft | 509 kts | 124° |
| 2026-04-27 17:04 | -22.93362 | -60.28896 | 37152 ft | 509 kts | 124° |
| 2026-04-27 17:05 | -22.97353 | -60.22686 | 37151 ft | 506 kts | 133° |
| 2026-04-27 17:05 | -23.02367 | -60.17250 | 37165 ft | 504 kts | 140° |
| 2026-04-27 17:06 | -23.07444 | -60.11991 | 37149 ft | 504 kts | 140° |
| 2026-04-27 17:06 | -23.12510 | -60.06729 | 37159 ft | 504 kts | 140° |
| 2026-04-27 17:07 | -23.17578 | -60.01466 | 37161 ft | 505 kts | 140° |
| 2026-04-27 17:07 | -23.22665 | -59.96182 | 37154 ft | 505 kts | 140° |
| 2026-04-27 17:08 | -23.27728 | -59.90914 | 37156 ft | 505 kts | 140° |
| 2026-04-27 17:08 | -23.32831 | -59.85600 | 37154 ft | 506 kts | 140° |
| 2026-04-27 17:09 | -23.37868 | -59.80350 | 37158 ft | 506 kts | 140° |
| 2026-04-27 17:09 | -23.42982 | -59.75013 | 37157 ft | 506 kts | 140° |
| 2026-04-27 17:10 | -23.48069 | -59.69699 | 37157 ft | 506 kts | 140° |
| 2026-04-27 17:10 | -23.53117 | -59.64420 | 37159 ft | 507 kts | 140° |
| 2026-04-27 17:11 | -23.58195 | -59.59102 | 37160 ft | 507 kts | 140° |
| 2026-04-27 17:11 | -23.65853 | -59.51072 | 37157 ft | 507 kts | 140° |
| 2026-04-27 17:12 | -23.73481 | -59.43060 | 37158 ft | 507 kts | 140° |
| 2026-04-27 17:13 | -23.78567 | -59.37711 | 37155 ft | 507 kts | 140° |
| 2026-04-27 17:13 | -23.83664 | -59.32343 | 37157 ft | 508 kts | 140° |
| 2026-04-27 17:14 | -23.88794 | -59.26935 | 37151 ft | 508 kts | 140° |
| 2026-04-27 17:14 | -23.93910 | -59.21536 | 37154 ft | 508 kts | 140° |
| 2026-04-27 17:15 | -23.98966 | -59.16194 | 37156 ft | 509 kts | 140° |
| 2026-04-27 17:15 | -24.04063 | -59.10801 | 37157 ft | 509 kts | 140° |
| 2026-04-27 17:16 | -24.09135 | -59.05424 | 37051 ft | 497 kts | 140° |
| 2026-04-27 17:16 | -24.11592 | -59.02814 | 36912 ft | 485 kts | 140° |
| 2026-04-27 17:16 | -24.13993 | -59.00265 | 36542 ft | 478 kts | 141° |
| 2026-04-27 17:16 | -24.16365 | -58.97748 | 36025 ft | 476 kts | 140° |
| 2026-04-27 17:17 | -24.18519 | -58.94977 | 35555 ft | 478 kts | 127° |
| 2026-04-27 17:17 | -24.20144 | -58.91823 | 35089 ft | 478 kts | 114° |
| 2026-04-27 17:17 | -24.21262 | -58.88428 | 34654 ft | 474 kts | 109° |
| 2026-04-27 17:18 | -24.23387 | -58.81568 | 33744 ft | 466 kts | 109° |
| 2026-04-27 17:18 | -24.24429 | -58.78225 | 33291 ft | 462 kts | 109° |
| 2026-04-27 17:18 | -24.25460 | -58.74916 | 32830 ft | 458 kts | 110° |
| 2026-04-27 17:18 | -24.26499 | -58.71574 | 32379 ft | 454 kts | 110° |
| 2026-04-27 17:19 | -24.27510 | -58.68318 | 31933 ft | 450 kts | 110° |
| 2026-04-27 17:19 | -24.28500 | -58.65128 | 31524 ft | 446 kts | 110° |
| 2026-04-27 17:19 | -24.29493 | -58.61922 | 31071 ft | 443 kts | 110° |
| 2026-04-27 17:19 | -24.30482 | -58.58727 | 30681 ft | 439 kts | 110° |
| 2026-04-27 17:20 | -24.31456 | -58.55578 | 30272 ft | 436 kts | 110° |
| 2026-04-27 17:20 | -24.32428 | -58.52434 | 29799 ft | 433 kts | 110° |
| 2026-04-27 17:20 | -24.33390 | -58.49321 | 29366 ft | 429 kts | 110° |
| 2026-04-27 17:20 | -24.34343 | -58.46235 | 28905 ft | 426 kts | 110° |
| 2026-04-27 17:21 | -24.35287 | -58.43175 | 28462 ft | 423 kts | 110° |
| 2026-04-27 17:21 | -24.36226 | -58.40130 | 28005 ft | 420 kts | 110° |
| 2026-04-27 17:21 | -24.37158 | -58.37104 | 27573 ft | 417 kts | 110° |
| 2026-04-27 17:21 | -24.38081 | -58.34103 | 27145 ft | 414 kts | 110° |
| 2026-04-27 17:22 | -24.38985 | -58.31164 | 26731 ft | 412 kts | 110° |
| 2026-04-27 17:22 | -24.39896 | -58.28197 | 26312 ft | 409 kts | 109° |
| 2026-04-27 17:22 | -24.40803 | -58.25246 | 25910 ft | 406 kts | 109° |
| 2026-04-27 17:22 | -24.41698 | -58.22330 | 25517 ft | 404 kts | 109° |
| 2026-04-27 17:23 | -24.42594 | -58.19406 | 25125 ft | 401 kts | 109° |
| 2026-04-27 17:23 | -24.43478 | -58.16521 | 24745 ft | 399 kts | 109° |
| 2026-04-27 17:23 | -24.44359 | -58.13645 | 24369 ft | 397 kts | 109° |
| 2026-04-27 17:23 | -24.45236 | -58.10780 | 23993 ft | 394 kts | 109° |
| 2026-04-27 17:24 | -24.46107 | -58.07931 | 23619 ft | 392 kts | 109° |
| 2026-04-27 17:24 | -24.46958 | -58.05145 | 23204 ft | 389 kts | 109° |
| 2026-04-27 17:24 | -24.47815 | -58.02334 | 22806 ft | 386 kts | 109° |
| 2026-04-27 17:24 | -24.48673 | -57.99521 | 22398 ft | 383 kts | 109° |
| 2026-04-27 17:25 | -24.49515 | -57.96793 | 22005 ft | 381 kts | 112° |
| 2026-04-27 17:25 | -24.50825 | -57.94309 | 21586 ft | 372 kts | 135° |
| 2026-04-27 17:25 | -24.52733 | -57.92519 | 21179 ft | 360 kts | 153° |
| 2026-04-27 17:25 | -24.54869 | -57.90992 | 20782 ft | 358 kts | 153° |
| 2026-04-27 17:26 | -24.56945 | -57.89509 | 20415 ft | 355 kts | 153° |
| 2026-04-27 17:26 | -24.59014 | -57.88027 | 20045 ft | 353 kts | 153° |
| 2026-04-27 17:26 | -24.61053 | -57.86562 | 19680 ft | 352 kts | 153° |
| 2026-04-27 17:26 | -24.63087 | -57.85096 | 19317 ft | 349 kts | 153° |
| 2026-04-27 17:27 | -24.65112 | -57.83635 | 18975 ft | 347 kts | 153° |
| 2026-04-27 17:27 | -24.67121 | -57.82184 | 18631 ft | 345 kts | 153° |
| 2026-04-27 17:27 | -24.69114 | -57.80745 | 18266 ft | 343 kts | 153° |
| 2026-04-27 17:27 | -24.71099 | -57.79311 | 17892 ft | 340 kts | 152° |
| 2026-04-27 17:28 | -24.73039 | -57.77908 | 17536 ft | 336 kts | 152° |
| 2026-04-27 17:28 | -24.74989 | -57.76499 | 17174 ft | 333 kts | 152° |
| 2026-04-27 17:28 | -24.78820 | -57.73728 | 16468 ft | 327 kts | 152° |
| 2026-04-27 17:29 | -24.80719 | -57.72354 | 16109 ft | 325 kts | 151° |
| 2026-04-27 17:29 | -24.82601 | -57.70991 | 15767 ft | 322 kts | 151° |
| 2026-04-27 17:29 | -24.84461 | -57.69644 | 15426 ft | 319 kts | 151° |
| 2026-04-27 17:29 | -24.86309 | -57.68305 | 15087 ft | 316 kts | 150° |
| 2026-04-27 17:30 | -24.87514 | -57.67432 | 14865 ft | 314 kts | 150° |
| 2026-04-27 17:30 | -24.91151 | -57.64794 | 14231 ft | 309 kts | 150° |
| 2026-04-27 17:30 | -24.92918 | -57.63512 | 13919 ft | 306 kts | 150° |
| 2026-04-27 17:31 | -24.94702 | -57.62217 | 13572 ft | 303 kts | 150° |
| 2026-04-27 17:31 | -24.96451 | -57.60945 | 13221 ft | 300 kts | 149° |
| 2026-04-27 17:31 | -24.98188 | -57.59683 | 12881 ft | 297 kts | 149° |
| 2026-04-27 17:31 | -24.99800 | -57.58263 | 12522 ft | 298 kts | 136° |
| 2026-04-27 17:32 | -25.01070 | -57.56471 | 12163 ft | 298 kts | 124° |
| 2026-04-27 17:32 | -25.03338 | -57.52500 | 10861 ft | 315 kts | 124° |
| 2026-04-27 17:32 | -25.04538 | -57.50443 | 10160 ft | 323 kts | 127° |
| 2026-04-27 17:33 | -25.06160 | -57.48757 | 9340 ft | 322 kts | 152° |
| 2026-04-27 17:33 | -25.08266 | -57.48021 | 8343 ft | 319 kts | 178° |
| 2026-04-27 17:33 | -25.10443 | -57.48332 | 7387 ft | 317 kts | 195° |
| 2026-04-27 17:33 | -25.12561 | -57.49012 | 6434 ft | 317 kts | 195° |
| 2026-04-27 17:34 | -25.14720 | -57.49620 | 4153 ft | 333 kts | 190° |
| 2026-04-27 17:34 | -25.17113 | -57.50186 | 2500 ft | 343 kts | 192° |
| 2026-04-27 17:34 | -25.19380 | -57.50787 | 1444 ft | 322 kts | 192° |
| 2026-04-27 17:34 | -25.21320 | -57.51230 | 858 ft | 237 kts | 192° |
| 2026-04-27 17:35 | -25.22712 | -57.51584 | 302 ft | 177 kts | 196° |
| 2026-04-27 17:35 | -25.23681 | -57.51849 | 272 ft | 98 kts | 193° |
| 2026-04-27 17:35 | -25.24060 | -57.51935 | 280 ft | 14 kts | 190° |
| 2026-04-27 17:35 | -25.24081 | -57.51939 | 281 ft | 5 kts | 191° |
| 2026-04-27 17:36 | -25.24139 | -57.51951 | 282 ft | 14 kts | 191° |
| 2026-04-27 17:36 | -25.24257 | -57.51921 | 283 ft | 18 kts | 111° |
| 2026-04-27 17:36 | -25.24286 | -57.51806 | 282 ft | 17 kts | 106° |
| 2026-04-27 17:36 | -25.24308 | -57.51658 | 282 ft | 20 kts | 82° |
| 2026-04-27 17:37 | -25.24317 | -57.51523 | 281 ft | 15 kts | 109° |
| 2026-04-27 17:37 | -25.24317 | -57.51463 | 281 ft | 6 kts | 49° |
| 2026-04-27 17:37 | -25.24288 | -57.51459 | 281 ft | 6 kts | 5° |
| 2026-04-27 17:37 | -25.24287 | -57.51459 | 281 ft | 0 kts | 5° |